KBKT/BKT METAR and TAF weather

Enter ICAO airport designator
Station Type Date Time Source
KBKT METAR 2022/10/01 08:35 UTC NOAA

KBKT 010835Z AUTO 07007G20KT 10SM OVC004 15/15 A2973 RMK AO1 T01530153


Station Type Date Time Source
KBKT Decoded METAR 2022/10/01 08:35 UTC NOAA

Ft. Pickett / Blackstone, VA, United States (KBKT) 37-05N 077-57W
Oct 01, 2022 - 04:35 AM EDT / 2022.10.01 0835 UTC
Wind: from the ENE (070 degrees) at 8 MPH (7 KT) gusting to 23 MPH (20 KT):0
Visibility: 10 mile(s):0
Sky conditions: overcast
Temperature: 59.5 F (15.3 C)
Dew Point: 59.5 F (15.3 C)
Relative Humidity: 100%
Pressure (altimeter): 29.73 in. Hg (1006 hPa)
ob: KBKT 010835Z AUTO 07007G20KT 10SM OVC004 15/15 A2973 RMK AO1 T01530153
cycle: 8

Station Type Date Time Source
KBKT TAF UTC NOAA

Error!

Example: see airport list